Time;durP1;ratioP1;P1;durP2;ratioP2;P2;SDS_P1;SDS_P2;PMS_P1;PMS_P2;Temp;Humidity;BMP_temperature;BMP_pressure;BME280_temperature;BME280_humidity;BME280_pressure;Samples;Min_cycle;Max_cycle;Signal;HPM_P1;HPM_P2
2024/02/15 00:00:25;;;;;;;4.80;3.50;;;;;;;-2.84;82.31;96227.30;106458;1276;24276;-77
2024/02/15 00:03:13;;;;;;;6.80;3.90;;;;;;;-2.77;82.50;96225.55;106756;1276;25949;-77
2024/02/15 00:05:45;;;;;;;5.90;3.30;;;;;;;-2.71;82.09;96224.91;106855;1276;22499;-77
2024/02/15 00:08:15;;;;;;;5.30;3.30;;;;;;;-2.69;81.93;96224.84;106706;1276;23024;-77
2024/02/15 00:10:46;;;;;;;5.10;3.50;;;;;;;-2.66;81.68;96228.76;106444;1276;22524;-77
2024/02/15 00:13:14;;;;;;;5.50;4.10;;;;;;;-2.71;81.44;96226.98;106799;1276;22998;-77
2024/02/15 00:15:42;;;;;;;5.00;3.60;;;;;;;-2.70;81.70;96230.30;106745;1276;25408;-77
2024/02/15 00:18:11;;;;;;;5.30;3.20;;;;;;;-2.74;81.10;96233.91;106557;1276;26538;-77
2024/02/15 00:20:39;;;;;;;8.30;5.40;;;;;;;-2.92;80.72;96234.34;106611;1276;24393;-77
2024/02/15 00:23:08;;;;;;;11.90;5.30;;;;;;;-3.04;81.22;96239.52;106594;1276;22511;-77
2024/02/15 00:25:36;;;;;;;6.10;3.90;;;;;;;-3.11;81.57;96237.16;106614;1276;24225;-77
2024/02/15 00:28:05;;;;;;;5.40;3.60;;;;;;;-3.18;81.58;96242.02;106591;1276;25313;-77
2024/02/15 00:30:33;;;;;;;7.30;4.30;;;;;;;-3.20;81.90;96242.27;106620;1276;24212;-77
2024/02/15 00:33:02;;;;;;;4.70;3.60;;;;;;;-3.24;82.17;96244.66;106660;1276;22573;-77
2024/02/15 00:35:32;;;;;;;8.80;4.10;;;;;;;-3.33;81.64;96245.29;106738;1276;22632;-77
2024/02/15 00:38:00;;;;;;;6.30;4.30;;;;;;;-3.35;82.21;96245.88;106612;1276;23148;-77
2024/02/15 00:40:29;;;;;;;7.40;3.90;;;;;;;-3.35;82.20;96246.60;106612;1276;22523;-77
2024/02/15 00:42:57;;;;;;;4.60;3.10;;;;;;;-3.36;81.91;96251.20;106672;1276;24046;-77
2024/02/15 00:45:25;;;;;;;5.40;4.00;;;;;;;-3.44;81.45;96253.74;106830;1276;25431;-77
2024/02/15 00:47:54;;;;;;;6.20;3.60;;;;;;;-3.48;81.75;96253.90;106705;1276;22554;-77
2024/02/15 00:50:22;;;;;;;4.00;3.30;;;;;;;-3.50;82.23;96258.13;106635;1276;24356;-77
2024/02/15 00:52:51;;;;;;;5.00;3.50;;;;;;;-3.57;82.18;96255.94;106662;1276;22799;-77
2024/02/15 00:55:20;;;;;;;7.50;4.80;;;;;;;-3.59;82.78;96256.35;106649;1276;22525;-77
2024/02/15 00:57:48;;;;;;;8.80;5.40;;;;;;;-3.64;82.98;96256.42;106567;1276;22627;-77
2024/02/15 01:00:16;;;;;;;12.20;7.20;;;;;;;-3.68;82.99;96261.05;106542;1276;24243;-77
2024/02/15 01:02:46;;;;;;;12.00;6.90;;;;;;;-3.75;83.16;96252.67;106554;1276;22569;-77
2024/02/15 01:05:15;;;;;;;8.30;5.10;;;;;;;-3.81;83.75;96256.52;106576;1276;23905;-77
2024/02/15 01:07:43;;;;;;;7.30;4.00;;;;;;;-3.86;83.19;96250.77;106653;1276;24267;-77
2024/02/15 01:10:12;;;;;;;8.90;5.60;;;;;;;-3.92;82.84;96256.54;106550;1276;24374;-77
2024/02/15 01:12:40;;;;;;;8.50;4.50;;;;;;;-3.96;82.66;96256.35;106594;1276;23006;-77
2024/02/15 01:15:09;;;;;;;11.40;5.20;;;;;;;-3.95;82.83;96252.61;106612;1276;22636;-77
2024/02/15 01:17:37;;;;;;;9.40;4.90;;;;;;;-3.89;83.18;96250.30;106676;1276;25438;-77
2024/02/15 01:20:07;;;;;;;11.30;4.60;;;;;;;-3.80;83.34;96243.14;106598;1276;25351;-77
2024/02/15 01:22:35;;;;;;;8.30;5.50;;;;;;;-3.71;83.64;96247.34;106583;1268;22524;-77
2024/02/15 01:25:04;;;;;;;12.70;7.00;;;;;;;-3.67;83.60;96246.66;106567;1276;22600;-77
2024/02/15 01:27:32;;;;;;;9.90;5.70;;;;;;;-3.71;83.34;96244.79;106597;1276;24247;-77
2024/02/15 01:30:00;;;;;;;7.70;4.20;;;;;;;-3.75;83.01;96247.52;106626;1273;24218;-77
2024/02/15 01:32:29;;;;;;;10.10;4.60;;;;;;;-3.75;83.05;96248.19;106587;1276;25353;-77
2024/02/15 01:34:58;;;;;;;7.80;4.30;;;;;;;-3.68;83.50;96244.20;106544;1276;24291;-77
2024/02/15 01:37:26;;;;;;;6.30;3.70;;;;;;;-3.60;83.54;96243.87;106674;1276;22535;-77
2024/02/15 01:39:54;;;;;;;6.90;3.70;;;;;;;-3.54;83.68;96245.04;106702;1276;22538;-77
2024/02/15 01:42:22;;;;;;;5.00;3.50;;;;;;;-3.48;83.44;96249.08;106601;1276;25563;-77
2024/02/15 01:44:52;;;;;;;11.40;5.70;;;;;;;-3.53;83.03;96247.13;106593;1276;22527;-77
2024/02/15 01:47:22;;;;;;;11.90;4.80;;;;;;;-3.66;82.80;96248.27;106555;1276;23897;-77
2024/02/15 01:49:53;;;;;;;6.90;3.50;;;;;;;-3.74;82.57;96249.61;106627;1276;24807;-77
2024/02/15 01:52:21;;;;;;;6.00;3.90;;;;;;;-3.74;83.29;96248.61;106677;1276;22613;-77
2024/02/15 01:54:53;;;;;;;5.00;3.40;;;;;;;-3.66;83.39;96253.58;106711;1276;26711;-77
2024/02/15 01:57:22;;;;;;;6.90;3.90;;;;;;;-3.62;83.21;96255.17;106634;1276;25511;-77
2024/02/15 01:59:53;;;;;;;7.80;5.10;;;;;;;-3.61;83.32;96257.61;106586;1276;23890;-77
2024/02/15 02:02:25;;;;;;;11.60;6.20;;;;;;;-3.64;83.20;96262.46;106651;1276;22523;-77
2024/02/15 02:04:53;;;;;;;12.80;6.50;;;;;;;-3.69;83.05;96261.02;106687;1276;24291;-77
2024/02/15 02:07:22;;;;;;;103.70;29.40;;;;;;;-3.79;83.02;96262.64;106598;1276;25716;-77
2024/02/15 02:09:50;;;;;;;123.50;36.60;;;;;;;-3.90;82.91;96265.88;106579;1276;25481;-77
2024/02/15 02:12:18;;;;;;;165.10;44.50;;;;;;;-4.04;82.78;96270.70;106656;1276;25494;-77
2024/02/15 02:14:46;;;;;;;77.00;22.90;;;;;;;-4.14;83.59;96270.77;106577;1276;23150;-77
2024/02/15 02:17:14;;;;;;;14.40;5.70;;;;;;;-4.16;84.11;96271.70;106557;1276;23753;-77
2024/02/15 02:19:43;;;;;;;6.80;4.10;;;;;;;-4.11;84.10;96270.21;106710;1276;22546;-77
2024/02/15 02:22:13;;;;;;;6.70;3.60;;;;;;;-4.03;84.04;96266.63;106607;1276;23018;-77
2024/02/15 02:25:08;;;;;;;5.30;3.80;;;;;;;-3.96;84.00;96262.17;106600;1276;22527;-77
2024/02/15 02:27:37;;;;;;;5.50;3.80;;;;;;;-3.87;83.89;96257.41;106625;1276;24272;-77
2024/02/15 02:30:17;;;;;;;7.10;3.90;;;;;;;-3.86;83.65;96258.70;106632;1276;24345;-77
2024/02/15 02:32:48;;;;;;;6.50;4.20;;;;;;;-3.82;83.74;96261.08;106688;1276;24435;-77
2024/02/15 02:35:17;;;;;;;15.70;6.80;;;;;;;-3.84;83.53;96263.74;106605;1276;24050;-77
2024/02/15 02:37:46;;;;;;;19.10;7.90;;;;;;;-3.86;83.57;96264.67;106571;1276;22550;-77
2024/02/15 02:40:14;;;;;;;22.70;8.50;;;;;;;-3.88;83.38;96262.35;106641;1276;24356;-77
2024/02/15 02:42:47;;;;;;;22.30;9.80;;;;;;;-3.92;83.29;96264.61;106562;1276;22541;-77
2024/02/15 02:45:16;;;;;;;10.60;4.10;;;;;;;-3.96;83.36;96264.08;106725;1276;22689;-77
2024/02/15 02:47:44;;;;;;;7.40;4.00;;;;;;;-4.00;82.99;96261.77;106646;1276;22519;-77
2024/02/15 02:50:13;;;;;;;6.20;3.10;;;;;;;-3.99;83.34;96257.89;106573;1276;25493;-77
2024/02/15 02:52:42;;;;;;;7.60;3.10;;;;;;;-4.05;82.75;96258.48;106595;1276;22532;-77
2024/02/15 02:55:11;;;;;;;3.80;2.70;;;;;;;-4.11;82.86;96258.04;106661;1276;24381;-77
2024/02/15 02:57:39;;;;;;;5.30;3.20;;;;;;;-4.15;82.75;96258.84;106622;1276;22792;-77
2024/02/15 03:00:12;;;;;;;3.80;3.00;;;;;;;-4.18;83.01;96260.45;106578;1276;25374;-77
2024/02/15 03:02:42;;;;;;;5.90;3.20;;;;;;;-4.21;83.01;96257.69;106649;1276;25246;-77
2024/02/15 03:05:11;;;;;;;5.10;3.70;;;;;;;-4.23;83.18;96258.12;106666;1276;22792;-77
2024/02/15 03:07:40;;;;;;;4.70;2.90;;;;;;;-4.21;83.53;96259.62;106678;1276;25728;-77
2024/02/15 03:10:10;;;;;;;5.90;3.50;;;;;;;-4.19;83.25;96260.55;106644;1276;24044;-77
2024/02/15 03:12:38;;;;;;;7.80;4.50;;;;;;;-4.17;83.46;96263.91;106611;1276;25500;-77
2024/02/15 03:15:11;;;;;;;17.40;7.10;;;;;;;-4.17;83.57;96269.27;106657;1276;23921;-77
2024/02/15 03:17:41;;;;;;;13.90;6.30;;;;;;;-4.20;83.30;96270.66;106618;1276;22595;-77
2024/02/15 03:20:20;;;;;;;8.50;4.30;;;;;;;-4.21;83.40;96271.48;106651;1276;22642;-77
2024/02/15 03:23:02;;;;;;;7.00;4.10;;;;;;;-4.16;83.63;96278.07;106622;1276;22639;-77
2024/02/15 03:25:30;;;;;;;7.10;4.50;;;;;;;-4.09;83.48;96280.59;106608;1276;22541;-77
2024/02/15 03:28:02;;;;;;;7.00;4.10;;;;;;;-4.07;83.54;96277.98;106615;1276;22882;-77
2024/02/15 03:30:33;;;;;;;9.70;3.90;;;;;;;-4.04;83.55;96279.16;106693;1276;22646;-77
2024/02/15 03:33:05;;;;;;;7.40;3.40;;;;;;;-4.03;83.14;96278.70;106603;1276;25246;-77
2024/02/15 03:35:35;;;;;;;5.30;3.50;;;;;;;-4.11;82.74;96277.77;106721;1276;25376;-77
2024/02/15 03:38:03;;;;;;;8.50;4.50;;;;;;;-4.15;83.17;96278.44;106596;1276;24275;-77
2024/02/15 03:40:32;;;;;;;7.90;4.50;;;;;;;-4.15;83.64;96277.41;106572;1276;22634;-77
2024/02/15 03:43:01;;;;;;;7.80;4.90;;;;;;;-4.11;83.75;96280.88;106676;1276;25365;-76
2024/02/15 03:45:29;;;;;;;8.60;4.80;;;;;;;-4.09;83.54;96281.80;106636;1276;22789;-77
2024/02/15 03:47:57;;;;;;;8.50;4.80;;;;;;;-4.08;83.70;96284.79;106565;1276;25485;-77
2024/02/15 03:50:26;;;;;;;7.90;4.30;;;;;;;-4.03;83.73;96287.41;106674;1276;24180;-77
2024/02/15 03:52:55;;;;;;;5.30;3.70;;;;;;;-4.03;83.54;96291.55;106581;1276;23179;-77
2024/02/15 03:55:25;;;;;;;5.50;4.00;;;;;;;-4.04;83.45;96292.69;106608;1276;23894;-77
2024/02/15 03:57:56;;;;;;;5.00;3.40;;;;;;;-4.04;83.52;96292.00;106694;1276;25292;-77
2024/02/15 04:00:25;;;;;;;9.20;4.00;;;;;;;-4.04;83.54;96288.77;106585;1276;22523;-76
2024/02/15 04:02:55;;;;;;;25.30;10.00;;;;;;;-4.09;83.07;96288.84;106565;1276;22523;-77
2024/02/15 04:05:24;;;;;;;7.10;4.20;;;;;;;-4.23;82.72;96286.79;106649;1276;22536;-77
2024/02/15 04:07:53;;;;;;;6.60;3.60;;;;;;;-4.29;82.84;96288.55;106563;1276;22682;-76
2024/02/15 04:10:21;;;;;;;8.40;4.00;;;;;;;-4.27;83.44;96283.69;106608;1276;22520;-77
2024/02/15 04:12:49;;;;;;;6.30;3.00;;;;;;;-4.23;83.52;96284.93;106559;1276;24222;-77
2024/02/15 04:15:18;;;;;;;7.00;3.60;;;;;;;-4.20;83.39;96287.63;106563;1276;22521;-77
2024/02/15 04:17:47;;;;;;;5.50;3.30;;;;;;;-4.21;83.13;96288.13;106647;1276;22530;-77
2024/02/15 04:20:17;;;;;;;5.40;2.90;;;;;;;-4.24;82.82;96289.86;106552;1264;22542;-75
2024/02/15 04:22:47;;;;;;;3.90;3.10;;;;;;;-4.27;82.60;96291.75;106586;1276;25371;-75
2024/02/15 04:25:17;;;;;;;11.40;6.10;;;;;;;-4.31;82.76;96291.89;106655;1260;22522;-75
2024/02/15 04:27:48;;;;;;;19.40;8.20;;;;;;;-4.42;82.90;96296.67;106647;1276;25521;-75
2024/02/15 04:30:16;;;;;;;13.00;7.50;;;;;;;-4.55;83.32;96297.25;106574;1276;25421;-76
2024/02/15 04:32:46;;;;;;;21.60;7.70;;;;;;;-4.63;83.57;96303.34;106659;1276;25661;-76
2024/02/15 04:35:15;;;;;;;12.40;5.60;;;;;;;-4.70;84.18;96300.45;106603;1276;22660;-76
2024/02/15 04:37:43;;;;;;;6.70;3.40;;;;;;;-4.73;84.03;96297.89;106603;1276;22652;-76
2024/02/15 04:40:13;;;;;;;5.40;3.30;;;;;;;-4.70;83.76;96297.00;106663;1276;23141;-76
2024/02/15 04:42:44;;;;;;;8.30;3.90;;;;;;;-4.68;83.59;96292.63;106572;1276;24228;-76
2024/02/15 04:45:15;;;;;;;15.70;6.80;;;;;;;-4.73;84.04;96290.46;106657;1276;25388;-76
2024/02/15 04:47:49;;;;;;;11.80;6.00;;;;;;;-4.79;83.63;96287.81;106640;1253;24265;-76
2024/02/15 04:50:18;;;;;;;7.40;3.80;;;;;;;-4.83;83.79;96288.64;106602;1267;22518;-76
2024/02/15 04:52:49;;;;;;;7.80;4.00;;;;;;;-4.82;84.12;96290.55;106668;1276;22657;-76
2024/02/15 04:55:18;;;;;;;7.50;3.90;;;;;;;-4.77;84.20;96293.41;106619;1276;24313;-76
2024/02/15 04:57:48;;;;;;;5.60;3.80;;;;;;;-4.70;84.19;96297.52;106572;1276;22597;-76
2024/02/15 05:00:20;;;;;;;8.90;5.30;;;;;;;-4.66;84.40;96300.31;106756;1276;25366;-76
2024/02/15 05:02:50;;;;;;;7.80;3.90;;;;;;;-4.67;84.21;96297.64;106658;1276;22518;-76
2024/02/15 05:05:20;;;;;;;7.80;4.10;;;;;;;-4.67;84.16;96301.81;106567;1276;22520;-76
2024/02/15 05:07:51;;;;;;;8.60;3.40;;;;;;;-4.66;84.34;96298.06;106681;1276;25139;-76
2024/02/15 05:10:19;;;;;;;17.70;8.10;;;;;;;-4.66;84.80;96299.44;106571;1276;23906;-76
2024/02/15 05:12:47;;;;;;;8.30;4.30;;;;;;;-4.66;84.85;96301.63;106571;1276;24362;-76
2024/02/15 05:15:17;;;;;;;25.60;10.40;;;;;;;-4.66;84.76;96298.23;106668;1276;24399;-76
2024/02/15 05:17:47;;;;;;;19.40;8.00;;;;;;;-4.66;84.79;96298.39;106522;1276;24268;-76
2024/02/15 05:20:17;;;;;;;9.40;4.00;;;;;;;-4.67;84.42;96301.09;106589;1276;22527;-76
2024/02/15 05:22:47;;;;;;;7.40;3.80;;;;;;;-4.70;84.03;96303.87;106578;1276;25418;-77
2024/02/15 05:25:26;;;;;;;;;;;;;;;-4.69;84.24;96302.71;106632;1276;22527;-77
2024/02/15 05:27:55;;;;;;;4.90;3.40;;;;;;;-4.64;84.57;96307.61;106566;1276;22609;-77
2024/02/15 05:30:25;;;;;;;6.50;3.70;;;;;;;-4.60;84.56;96306.80;106563;1276;25472;-77
2024/02/15 05:32:54;;;;;;;5.60;3.70;;;;;;;-4.59;84.27;96308.58;106588;1253;22526;-77
2024/02/15 05:35:26;;;;;;;6.80;3.30;;;;;;;-4.57;84.27;96308.80;106646;1276;22544;-77
2024/02/15 05:37:55;;;;;;;5.20;3.30;;;;;;;-4.59;83.99;96309.44;106582;1276;22582;-77
2024/02/15 05:40:24;;;;;;;6.40;3.90;;;;;;;-4.60;83.84;96309.52;106555;1276;24304;-77
2024/02/15 05:42:57;;;;;;;4.50;2.90;;;;;;;-4.62;84.12;96310.48;106612;1276;24236;-77
2024/02/15 05:45:25;;;;;;;9.00;3.80;;;;;;;-4.59;84.42;96316.44;106607;1276;25566;-76
2024/02/15 05:47:55;;;;;;;21.90;10.30;;;;;;;-4.61;84.34;96315.51;106540;1267;22546;-77
2024/02/15 05:50:23;;;;;;;38.10;15.80;;;;;;;-4.70;84.34;96317.62;106710;1275;22647;-77
2024/02/15 05:52:54;;;;;;;17.20;6.40;;;;;;;-4.74;84.32;96316.18;106573;1276;22653;-77
2024/02/15 05:55:26;;;;;;;7.10;3.70;;;;;;;-4.68;84.79;96318.91;106652;1276;23038;-77
2024/02/15 05:57:54;;;;;;;10.10;5.50;;;;;;;-4.60;84.95;96323.45;106558;1273;22730;-77
2024/02/15 06:00:22;;;;;;;76.70;34.00;;;;;;;-4.56;85.02;96327.60;106656;1266;22801;-78
2024/02/15 06:02:52;;;;;;;38.30;16.90;;;;;;;-4.57;84.99;96328.59;106706;1269;24338;-76
2024/02/15 06:05:21;;;;;;;30.10;14.60;;;;;;;-4.52;85.15;96332.27;106817;1276;24251;-76
2024/02/15 06:07:50;;;;;;;14.10;6.70;;;;;;;-4.50;84.53;96333.73;106679;1276;22588;-76
2024/02/15 06:10:18;;;;;;;15.90;8.40;;;;;;;-4.47;84.98;96336.61;106785;1276;22537;-76
2024/02/15 06:12:47;;;;;;;39.60;17.30;;;;;;;-4.45;85.00;96336.56;106734;1276;22538;-77
2024/02/15 06:15:15;;;;;;;11.00;4.70;;;;;;;-4.43;85.01;96332.90;106756;1276;25422;-76
2024/02/15 06:17:46;;;;;;;14.10;6.80;;;;;;;-4.36;84.91;96333.05;107090;1276;22523;-77
2024/02/15 06:20:19;;;;;;;43.00;18.50;;;;;;;-4.26;85.41;96335.28;106905;1276;24926;-78
2024/02/15 06:22:48;;;;;;;52.70;22.50;;;;;;;-4.14;85.51;96333.95;106719;1276;22536;-77
2024/02/15 06:25:20;;;;;;;53.50;23.70;;;;;;;-4.05;85.55;96332.36;106804;1276;22516;-77
2024/02/15 06:27:58;;;;;;;;;;;;;;;-3.92;85.52;96333.52;106790;1276;24187;-76
2024/02/15 06:39:38;;;;;;;84.60;30.50;;;;;;;-3.59;85.74;96334.04;106765;1276;25426;-77
2024/02/15 06:41:51;;;;;;;49.70;17.00;;;;;;;-3.20;83.82;96328.97;106628;1276;22636;-77
2024/02/15 06:44:19;;;;;;;13.80;6.80;;;;;;;-3.22;83.61;96325.64;106735;1276;22534;-77
2024/02/15 06:46:48;;;;;;;18.90;7.90;;;;;;;-3.18;84.21;96325.98;106905;1276;24392;-78
2024/02/15 06:49:16;;;;;;;29.50;16.10;;;;;;;-3.11;84.28;96324.60;106619;1276;22520;-78
2024/02/15 06:51:48;;;;;;;30.80;16.70;;;;;;;-2.91;85.13;96322.70;106683;1276;22617;-78
2024/02/15 06:54:18;;;;;;;121.60;42.30;;;;;;;-2.67;85.17;96320.66;106769;1276;23920;-78
2024/02/15 06:56:47;;;;;;;48.40;22.60;;;;;;;-2.53;84.20;96324.55;106865;1275;22529;-79
2024/02/15 06:59:18;;;;;;;42.20;19.10;;;;;;;-2.42;84.14;96323.48;106861;1276;22635;-80
2024/02/15 07:01:46;;;;;;;39.00;18.30;;;;;;;-2.22;83.96;96326.21;106774;1276;25284;-79
2024/02/15 07:04:15;;;;;;;58.80;37.50;;;;;;;-2.09;83.28;96326.23;106773;1272;24471;-77
2024/02/15 07:06:47;;;;;;;37.10;22.80;;;;;;;-1.99;82.96;96322.48;106754;1276;24098;-77
2024/02/15 07:09:17;;;;;;;30.00;17.70;;;;;;;-1.98;82.98;96328.42;107037;1276;22546;-77
2024/02/15 07:11:46;;;;;;;31.90;18.50;;;;;;;-1.93;82.89;96324.13;106870;1276;25441;-78
2024/02/15 07:14:19;;;;;;;27.30;16.50;;;;;;;-1.83;83.33;96324.05;106871;1276;25051;-76
2024/02/15 07:16:49;;;;;;;86.90;35.40;;;;;;;-1.68;83.06;96321.54;109878;1276;22527;-75
2024/02/15 07:19:18;;;;;;;55.70;26.50;;;;;;;-1.47;83.49;96316.52;106757;1276;24360;-76
2024/02/15 07:21:47;;;;;;;60.90;25.50;;;;;;;-1.23;83.16;96311.89;107203;1266;25506;-76
2024/02/15 07:24:15;;;;;;;43.50;19.10;;;;;;;-1.04;83.02;96310.88;106739;1276;22527;-77
2024/02/15 07:26:43;;;;;;;57.60;22.70;;;;;;;-0.81;82.61;96314.50;106837;1276;24050;-78
2024/02/15 07:29:11;;;;;;;37.70;17.40;;;;;;;-0.68;81.71;96312.22;106787;1276;24268;-78
2024/02/15 07:31:39;;;;;;;40.70;18.90;;;;;;;-0.59;81.48;96311.33;107149;1276;24282;-77
2024/02/15 07:34:08;;;;;;;74.10;31.00;;;;;;;-0.54;81.37;96311.48;106844;1276;22520;-77
2024/02/15 07:36:39;;;;;;;49.80;21.90;;;;;;;-0.50;81.23;96309.23;106870;1276;22766;-77
2024/02/15 07:39:11;;;;;;;76.10;30.30;;;;;;;-0.39;81.38;96315.11;106723;1276;24277;-76
2024/02/15 07:41:41;;;;;;;80.60;31.50;;;;;;;-0.31;81.17;96308.48;106905;1276;23861;-79
2024/02/15 07:44:10;;;;;;;513.60;148.00;;;;;;;-0.23;80.56;96310.49;107079;1276;25558;-78
2024/02/15 07:46:38;;;;;;;144.00;47.50;;;;;;;-0.18;79.91;96306.17;106987;1276;22522;-77
2024/02/15 07:49:08;;;;;;;35.00;14.80;;;;;;;-0.12;79.92;96303.79;106851;1276;25303;-79
2024/02/15 07:51:36;;;;;;;372.10;111.90;;;;;;;-0.04;79.81;96306.48;106768;1276;22646;-76
2024/02/15 07:54:06;;;;;;;55.50;20.20;;;;;;;0.01;79.65;96306.30;106677;1276;22569;-77
2024/02/15 07:56:35;;;;;;;30.20;13.40;;;;;;;0.11;79.99;96303.53;106724;1276;22524;-77
2024/02/15 07:59:03;;;;;;;43.90;17.90;;;;;;;0.22;79.85;96297.66;106786;1276;22657;-76
2024/02/15 08:01:31;;;;;;;46.40;19.90;;;;;;;0.28;79.25;96293.84;106697;1276;25379;-77
2024/02/15 08:04:00;;;;;;;298.10;101.00;;;;;;;0.34;79.53;96295.29;106632;1276;25431;-76
2024/02/15 08:06:31;;;;;;;57.00;26.00;;;;;;;0.45;79.69;96290.79;106828;1276;22632;-76
2024/02/15 08:09:00;;;;;;;52.80;24.20;;;;;;;0.59;79.86;96289.30;107201;1276;25259;-76
2024/02/15 08:11:28;;;;;;;76.60;34.50;;;;;;;0.73;79.90;96278.47;106761;1276;22643;-77
2024/02/15 08:13:59;;;;;;;76.20;30.10;;;;;;;0.87;79.74;96283.05;106669;1276;22656;-76
2024/02/15 08:16:27;;;;;;;65.90;23.80;;;;;;;1.00;79.27;96283.77;106704;1276;25532;-78
2024/02/15 08:18:56;;;;;;;60.20;23.90;;;;;;;1.10;79.17;96283.52;106629;1276;22537;-78
2024/02/15 08:21:29;;;;;;;57.80;17.50;;;;;;;1.21;78.68;96283.17;106766;1276;22531;-75
2024/02/15 08:23:58;;;;;;;56.80;19.80;;;;;;;1.33;78.45;96281.77;106717;1276;25354;-77
2024/02/15 08:26:29;;;;;;;47.00;16.40;;;;;;;1.46;78.55;96275.54;106784;1253;22638;-75
2024/02/15 08:28:58;;;;;;;43.20;15.30;;;;;;;1.62;78.71;96272.34;106625;1276;25392;-76
2024/02/15 08:31:26;;;;;;;42.40;13.40;;;;;;;1.78;77.00;96276.93;106664;1276;22940;-76
2024/02/15 08:33:55;;;;;;;36.10;13.50;;;;;;;1.92;77.04;96278.69;106719;1276;24267;-75
2024/02/15 08:36:24;;;;;;;32.10;12.20;;;;;;;2.08;77.54;96273.54;106655;1276;24101;-75
2024/02/15 08:38:53;;;;;;;37.40;18.10;;;;;;;2.22;74.91;96272.30;106615;1277;22540;-75
2024/02/15 08:41:26;;;;;;;32.80;16.30;;;;;;;2.33;74.67;96275.35;106574;1276;25421;-74
2024/02/15 08:43:58;;;;;;;17.60;11.50;;;;;;;2.44;74.09;96276.98;106610;1276;22568;-74
2024/02/15 08:46:27;;;;;;;16.20;7.10;;;;;;;2.53;72.77;96272.33;106605;1273;24232;-74
2024/02/15 08:48:55;;;;;;;25.30;16.00;;;;;;;2.68;73.75;96274.95;106614;1276;22690;-76
2024/02/15 08:51:24;;;;;;;14.80;6.90;;;;;;;2.87;73.62;96277.27;106597;1253;22673;-74
2024/02/15 08:53:53;;;;;;;12.20;7.70;;;;;;;3.06;74.35;96282.04;106646;1276;22995;-75
2024/02/15 08:56:23;;;;;;;13.50;6.10;;;;;;;3.25;74.11;96283.14;106655;1276;25527;-75
2024/02/15 08:58:51;;;;;;;13.50;5.60;;;;;;;3.45;74.24;96283.20;106655;1276;25494;-76
2024/02/15 09:01:19;;;;;;;15.30;5.40;;;;;;;3.64;74.48;96285.83;106567;1276;22541;-75
2024/02/15 09:03:48;;;;;;;10.90;4.60;;;;;;;3.85;74.05;96281.70;106589;1276;22519;-76
2024/02/15 09:06:17;;;;;;;13.40;5.00;;;;;;;4.04;73.18;96279.08;106596;1276;24448;-75
2024/02/15 09:08:46;;;;;;;10.40;4.20;;;;;;;4.19;71.63;96274.63;106689;1276;22531;-76
2024/02/15 09:11:15;;;;;;;12.80;5.70;;;;;;;4.30;70.17;96276.05;106901;1276;22522;-77
2024/02/15 09:13:43;;;;;;;13.50;5.40;;;;;;;4.46;68.67;96273.50;106886;1265;22781;-78
2024/02/15 09:16:12;;;;;;;7.90;4.90;;;;;;;4.60;68.40;96274.62;106861;1276;22559;-76
2024/02/15 09:18:45;;;;;;;8.00;5.30;;;;;;;4.77;67.84;96269.11;106873;1276;22556;-76
2024/02/15 09:21:14;;;;;;;3.10;2.30;;;;;;;4.91;66.35;96272.11;106911;1276;24232;-76
2024/02/15 09:23:43;;;;;;;4.20;3.00;;;;;;;5.00;63.30;96270.48;107180;1276;25497;-76
2024/02/15 09:26:11;;;;;;;6.50;4.20;;;;;;;5.12;64.59;96274.65;107112;1276;25258;-75
2024/02/15 09:28:40;;;;;;;5.40;3.50;;;;;;;5.20;62.70;96270.76;106571;1276;22641;-77
2024/02/15 09:31:29;;;;;;;7.20;4.30;;;;;;;5.27;61.86;96273.81;106680;1276;22688;-75
2024/02/15 09:33:58;;;;;;;6.90;4.20;;;;;;;5.30;60.92;96271.58;106767;1276;25538;-76
2024/02/15 09:36:28;;;;;;;7.80;4.90;;;;;;;5.27;60.24;96273.10;106759;1276;22959;-77
2024/02/15 09:38:58;;;;;;;5.30;3.60;;;;;;;5.30;60.62;96279.26;106638;1276;24438;-75
2024/02/15 09:41:27;;;;;;;7.70;4.30;;;;;;;5.40;61.04;96277.98;106642;1272;22648;-76
2024/02/15 09:43:57;;;;;;;5.70;3.30;;;;;;;5.50;60.41;96271.12;106646;1276;22553;-75
2024/02/15 09:46:26;;;;;;;4.80;2.80;;;;;;;5.56;59.32;96273.64;106623;1276;22548;-76
2024/02/15 09:48:59;;;;;;;5.00;2.30;;;;;;;5.54;57.94;96271.70;106612;1276;24170;-76
2024/02/15 09:51:31;;;;;;;5.50;3.80;;;;;;;5.54;58.80;96267.85;106600;1266;22528;-76
2024/02/15 09:54:01;;;;;;;6.10;3.30;;;;;;;5.63;59.49;96265.52;106607;1276;22734;-74
2024/02/15 09:56:31;;;;;;;4.30;3.20;;;;;;;5.76;59.28;96260.95;106789;1272;22643;-76
2024/02/15 09:59:10;;;;;;;;;;;;;;;;;;;;;
2024/02/15 10:01:41;;;;;;;5.20;2.60;;;;;;;5.99;56.40;96248.83;106701;1276;22545;-75
2024/02/15 10:04:12;;;;;;;3.90;2.20;;;;;;;6.13;57.55;96246.85;106813;1263;22536;-78
2024/02/15 10:06:42;;;;;;;3.70;2.40;;;;;;;6.26;56.12;96241.02;106665;1276;25351;-76
2024/02/15 10:09:27;;;;;;;2.40;1.50;;;;;;;6.37;53.96;96242.00;106684;1276;22933;-77
2024/02/15 10:12:00;;;;;;;3.20;2.00;;;;;;;6.53;55.10;96235.48;106795;1276;23890;-77
2024/02/15 10:14:30;;;;;;;2.90;1.60;;;;;;;6.69;53.46;96234.90;106252;1276;630796;-77
2024/02/15 10:17:09;;;;;;;2.70;2.10;;;;;;;6.81;52.28;96236.02;106738;1276;25500;-77
2024/02/15 10:19:39;;;;;;;2.10;1.30;;;;;;;6.90;51.71;96233.96;106619;1276;22686;-77
2024/02/15 10:22:09;;;;;;;1.80;1.20;;;;;;;7.01;48.82;96231.23;106811;1273;25249;-77
2024/02/15 10:24:39;;;;;;;2.20;1.70;;;;;;;7.19;49.77;96227.83;106738;1276;22531;-77
2024/02/15 10:27:08;;;;;;;5.10;2.50;;;;;;;7.30;48.36;96224.02;106732;1272;22653;-78
2024/02/15 10:29:39;;;;;;;1.60;1.00;;;;;;;7.38;47.98;96223.17;106722;1276;23903;-77
2024/02/15 10:32:10;;;;;;;1.60;1.30;;;;;;;7.52;47.78;96221.66;106678;1270;24231;-77
2024/02/15 10:34:45;;;;;;;3.80;1.80;;;;;;;7.76;46.42;96214.55;106685;1276;25503;-77
2024/02/15 10:37:16;;;;;;;2.50;2.10;;;;;;;8.12;45.92;96215.13;106646;1276;25585;-77
2024/02/15 10:39:45;;;;;;;1.80;1.40;;;;;;;8.50;45.83;96214.64;106642;1276;23754;-77
2024/02/15 10:42:15;;;;;;;4.20;2.80;;;;;;;8.88;43.15;96211.44;106594;1276;25505;-77
2024/02/15 10:44:45;;;;;;;2.90;1.90;;;;;;;9.33;42.54;96210.07;106658;1276;23897;-77
2024/02/15 10:47:14;;;;;;;2.30;1.60;;;;;;;9.79;43.81;96207.04;106658;1276;22557;-77
2024/02/15 10:49:42;;;;;;;2.40;1.70;;;;;;;10.13;42.35;96203.48;106605;1276;25354;-78
2024/02/15 10:52:17;;;;;;;4.40;2.80;;;;;;;10.46;41.00;96199.40;106689;1276;22527;-77
2024/02/15 10:55:05;;;;;;;3.30;2.30;;;;;;;10.86;41.32;96198.85;106704;1276;22624;-77
2024/02/15 10:57:38;;;;;;;2.40;2.10;;;;;;;11.29;40.58;96193.64;106676;1276;22608;-78
2024/02/15 11:00:11;;;;;;;3.20;2.20;;;;;;;11.53;40.03;96186.12;106641;1264;23940;-77
2024/02/15 11:02:50;;;;;;;2.80;2.40;;;;;;;11.80;39.12;96181.00;106738;1276;23907;-78
2024/02/15 11:05:23;;;;;;;3.10;2.60;;;;;;;12.22;37.42;96177.05;106664;1272;25422;-78
2024/02/15 11:07:55;;;;;;;4.20;2.50;;;;;;;12.60;36.96;96177.14;106628;1276;22536;-78
2024/02/15 11:10:27;;;;;;;3.70;2.40;;;;;;;12.96;37.11;96178.27;106628;1276;25382;-78
2024/02/15 11:12:58;;;;;;;2.40;1.90;;;;;;;13.38;35.88;96170.95;106673;1276;24382;-78
2024/02/15 11:15:41;;;;;;;2.90;1.80;;;;;;;13.43;34.02;96168.38;106616;1276;22573;-78
2024/02/15 11:18:10;;;;;;;5.60;3.10;;;;;;;13.70;34.70;96166.92;107035;1276;23989;-78
2024/02/15 11:20:41;;;;;;;2.90;1.90;;;;;;;13.98;33.90;96162.93;106682;1276;24205;-78
2024/02/15 11:23:10;;;;;;;2.70;2.00;;;;;;;14.09;33.07;96161.09;106592;1276;22519;-78
2024/02/15 11:25:45;;;;;;;3.70;2.10;;;;;;;14.06;32.38;96164.00;106666;1276;22536;-78
2024/02/15 11:28:23;;;;;;;2.90;2.00;;;;;;;14.26;32.97;96156.80;106665;1276;22524;-78
2024/02/15 11:30:52;;;;;;;1.90;1.60;;;;;;;14.45;31.97;96153.86;106890;1276;24231;-78
2024/02/15 11:33:31;;;;;;;3.60;2.10;;;;;;;14.55;31.35;96150.09;106631;1276;22527;-78
2024/02/15 11:36:07;;;;;;;7.20;3.80;;;;;;;14.78;31.74;96150.23;106623;1276;22750;-77
2024/02/15 11:38:37;;;;;;;6.00;2.80;;;;;;;15.11;31.48;96143.13;106679;1275;22542;-78
2024/02/15 11:41:08;;;;;;;2.40;1.50;;;;;;;15.30;29.98;96141.17;106712;1276;22600;-78
2024/02/15 11:43:49;;;;;;;4.30;2.70;;;;;;;15.68;31.20;96135.30;106635;1276;25294;-78
2024/02/15 11:46:19;;;;;;;3.00;2.10;;;;;;;16.31;30.87;96135.32;106685;1272;22758;-78